createdAt,value
2019-01-29T10:58:19.497Z,15.91
2019-01-29T11:00:48.962Z,15.96
2019-01-29T11:03:17.839Z,16.09
2019-01-29T11:05:47.451Z,16.17
2019-01-29T11:08:16.873Z,16.18
2019-01-29T11:10:46.061Z,16.24
2019-01-29T11:13:15.546Z,16.34
2019-01-29T11:15:44.871Z,16.44
2019-01-29T11:18:14.417Z,16.38
2019-01-29T11:20:44.070Z,16.22
2019-01-29T11:23:13.882Z,16.12
2019-01-29T11:25:43.697Z,16.12
2019-01-29T11:28:13.635Z,16.12
2019-01-29T11:30:43.195Z,16.27
2019-01-29T11:33:12.822Z,16.53
2019-01-29T11:35:42.254Z,16.68
2019-01-29T11:38:12.171Z,16.69
2019-01-29T11:40:41.867Z,16.68
2019-01-29T11:43:13.777Z,16.80
2019-01-29T11:45:46.155Z,17.07
2019-01-29T11:48:15.702Z,17.37
2019-01-29T11:50:45.366Z,17.62
2019-01-29T11:53:15.063Z,17.81
2019-01-29T11:55:44.721Z,17.93
2019-01-29T11:58:14.390Z,18.08
2019-01-29T12:00:45.585Z,18.12
2019-01-29T12:03:15.350Z,18.19
2019-01-29T12:05:45.385Z,18.31
2019-01-29T12:08:15.059Z,18.48
2019-01-29T12:10:44.527Z,18.53
2019-01-29T12:13:14.288Z,18.46
2019-01-29T12:15:43.821Z,18.20
2019-01-29T12:18:13.225Z,17.82
2019-01-29T12:20:42.912Z,17.58
2019-01-29T12:23:12.567Z,17.36
2019-01-29T12:25:42.358Z,17.23
2019-01-29T12:28:12.109Z,17.22
2019-01-29T12:30:42.120Z,17.24
2019-01-29T12:33:11.774Z,17.26
2019-01-29T12:35:41.507Z,17.25
2019-01-29T12:38:11.146Z,17.46
2019-01-29T12:40:40.682Z,17.73
2019-01-29T12:43:10.803Z,18.00
2019-01-29T12:45:41.192Z,18.20
2019-01-29T12:48:10.892Z,18.29
2019-01-29T12:50:42.421Z,18.19
2019-01-29T12:53:13.719Z,18.19
2019-01-29T12:55:43.293Z,18.16
2019-01-29T12:58:13.353Z,18.09
2019-01-29T13:00:51.756Z,18.15
2019-01-29T13:03:21.568Z,18.23
2019-01-29T13:05:51.324Z,18.47
2019-01-29T13:08:20.885Z,18.72
2019-01-29T13:10:50.739Z,18.69
2019-01-29T13:13:20.283Z,18.44
2019-01-29T13:15:49.845Z,18.34
2019-01-29T13:18:19.720Z,18.28
2019-01-29T13:20:49.409Z,18.53
2019-01-29T13:23:18.955Z,18.85
2019-01-29T13:25:48.546Z,19.52
2019-01-29T13:28:18.217Z,18.89
2019-01-29T13:30:48.060Z,18.80
2019-01-29T13:33:17.713Z,18.89
2019-01-29T13:35:48.886Z,18.90
2019-01-29T13:38:18.727Z,18.81
2019-01-29T13:40:54.889Z,18.28
2019-01-29T13:43:24.458Z,17.88
2019-01-29T13:45:54.179Z,17.70
2019-01-29T13:48:24.187Z,17.90
2019-01-29T13:50:54.267Z,18.11
2019-01-29T13:53:23.922Z,18.28
2019-01-29T13:55:53.895Z,18.36
2019-01-29T13:58:23.540Z,18.53
2019-01-29T14:00:53.362Z,18.69
2019-01-29T14:03:22.922Z,18.64
2019-01-29T14:05:52.522Z,18.75
2019-01-29T14:08:22.076Z,18.60
2019-01-29T14:10:51.848Z,18.42
2019-01-29T14:13:21.482Z,18.29
2019-01-29T14:15:52.710Z,18.19
2019-01-29T14:18:22.454Z,18.03
2019-01-29T14:20:52.286Z,18.05
2019-01-29T14:23:21.811Z,18.24
2019-01-29T14:25:51.539Z,18.58
2019-01-29T14:28:21.412Z,18.92
2019-01-29T14:30:50.975Z,19.24
2019-01-29T14:33:20.675Z,19.59
2019-01-29T14:35:50.409Z,19.92
2019-01-29T14:38:31.758Z,20.18
2019-01-29T14:41:01.388Z,20.11
2019-01-29T14:43:39.766Z,19.89
2019-01-29T14:46:09.434Z,19.63
2019-01-29T14:48:39.111Z,19.16
2019-01-29T14:51:09.403Z,18.87
2019-01-29T14:53:38.976Z,18.56
2019-01-29T14:56:08.665Z,18.30
2019-01-29T14:58:38.369Z,18.13
2019-01-29T15:01:07.968Z,17.93
2019-01-29T15:03:37.772Z,17.80
2019-01-29T15:06:07.619Z,17.56
2019-01-29T15:08:37.283Z,17.59
2019-01-29T15:11:07.021Z,17.78
2019-01-29T15:13:36.715Z,18.02
2019-01-29T15:16:08.017Z,18.13
2019-01-29T15:18:39.411Z,18.11
2019-01-29T15:21:09.156Z,18.01
2019-01-29T15:23:38.667Z,17.92
2019-01-29T15:26:08.387Z,17.70
2019-01-29T15:28:38.358Z,17.35
2019-01-29T15:31:08.061Z,17.18
2019-01-29T15:33:37.768Z,17.13
2019-01-29T15:36:07.552Z,17.32
2019-01-29T15:38:37.114Z,17.47
2019-01-29T15:41:06.903Z,17.54
2019-01-29T15:43:36.629Z,17.42
2019-01-29T15:46:06.312Z,17.42
2019-01-29T15:48:35.929Z,17.29
2019-01-29T15:51:05.780Z,17.23
2019-01-29T15:53:36.371Z,17.10
2019-01-29T15:56:06.197Z,17.01
2019-01-29T15:58:35.760Z,16.97
2019-01-29T16:01:05.418Z,16.99
2019-01-29T16:03:34.901Z,16.95
2019-01-29T16:06:04.774Z,16.85
2019-01-29T16:08:34.575Z,16.83
2019-01-29T16:11:04.285Z,16.65
2019-01-29T16:13:34.035Z,16.47
2019-01-29T16:16:03.787Z,16.32
2019-01-29T16:18:33.488Z,16.19
2019-01-29T16:21:03.300Z,16.13
2019-01-29T16:23:33.002Z,16.15
2019-01-29T16:26:02.801Z,16.08
2019-01-29T16:28:32.486Z,16.08
2019-01-29T16:31:01.444Z,16.15
2019-01-29T16:33:30.508Z,16.22
2019-01-29T16:36:00.558Z,16.33
2019-01-29T16:38:29.551Z,16.41
2019-01-29T16:41:00.669Z,16.42
2019-01-29T16:43:29.761Z,16.48
2019-01-29T16:45:59.287Z,16.51
2019-01-29T16:48:28.962Z,16.52
2019-01-29T16:50:58.978Z,16.43
2019-01-29T16:53:27.812Z,16.23
2019-01-29T16:56:06.092Z,16.08
2019-01-29T16:58:35.121Z,15.80
2019-01-29T17:01:03.968Z,15.65
2019-01-29T17:03:32.924Z,15.49
2019-01-29T17:06:03.433Z,15.43
2019-01-29T17:08:33.385Z,15.41
2019-01-29T17:11:02.870Z,15.42
2019-01-29T17:13:31.750Z,15.43
2019-01-29T17:16:00.605Z,15.35
2019-01-29T17:18:29.701Z,15.27
2019-01-29T17:20:58.876Z,15.21
2019-01-29T17:23:27.954Z,15.20
2019-01-29T17:25:57.288Z,15.08
2019-01-29T17:28:26.537Z,15.10
2019-01-29T17:30:57.665Z,15.11
2019-01-29T17:33:27.256Z,15.09
2019-01-29T17:35:56.192Z,15.06
2019-01-29T17:38:26.778Z,14.89
2019-01-29T17:40:55.930Z,14.76
2019-01-29T17:43:26.125Z,14.70
2019-01-29T17:45:55.253Z,14.65
2019-01-29T17:48:25.744Z,14.63
2019-01-29T17:50:54.940Z,14.62
2019-01-29T17:53:23.849Z,14.61
2019-01-29T17:55:52.883Z,14.58
2019-01-29T17:58:22.072Z,14.56
2019-01-29T18:00:52.488Z,14.55
2019-01-29T18:03:21.650Z,14.51
2019-01-29T18:05:50.640Z,14.42
2019-01-29T18:08:21.762Z,14.38
2019-01-29T18:10:50.655Z,14.35
2019-01-29T18:13:19.512Z,14.26
2019-01-29T18:15:48.315Z,14.24
2019-01-29T18:18:17.247Z,14.21
2019-01-29T18:20:46.620Z,14.20
2019-01-29T18:23:16.939Z,14.18
2019-01-29T18:25:45.908Z,14.18
2019-01-29T18:28:15.837Z,14.17
2019-01-29T18:30:45.484Z,14.14
2019-01-29T18:33:14.409Z,14.12
2019-01-29T18:35:44.408Z,14.00
2019-01-29T18:38:13.633Z,14.04
2019-01-29T18:40:46.007Z,14.02
2019-01-29T18:43:15.338Z,14.01
2019-01-29T18:45:44.417Z,14.03
2019-01-29T18:48:13.766Z,14.05
2019-01-29T18:50:42.642Z,14.09
2019-01-29T18:53:11.481Z,14.09
2019-01-29T18:55:40.550Z,14.11
2019-01-29T18:58:12.101Z,14.13
2019-01-29T19:00:40.721Z,14.19
2019-01-29T19:03:09.646Z,14.23
2019-01-29T19:05:38.686Z,14.24
2019-01-29T19:08:08.022Z,14.25
2019-01-29T19:10:36.928Z,14.26
2019-01-29T19:13:06.075Z,14.24
2019-01-29T19:15:35.397Z,14.22
2019-01-29T19:18:04.641Z,14.20
2019-01-29T19:20:33.731Z,14.18
2019-01-29T19:23:02.717Z,14.20
2019-01-29T19:25:31.625Z,14.21
2019-01-29T19:28:00.580Z,14.20
2019-01-29T19:30:31.737Z,14.19
2019-01-29T19:33:01.371Z,14.18
2019-01-29T19:35:31.028Z,14.26
2019-01-29T19:38:00.848Z,14.22
2019-01-29T19:40:29.907Z,14.23
2019-01-29T19:42:59.066Z,14.21
2019-01-29T19:45:33.822Z,14.19
2019-01-29T19:48:03.632Z,14.20
2019-01-29T19:50:33.585Z,14.20
2019-01-29T19:53:02.450Z,14.18
2019-01-29T19:55:32.042Z,14.17
2019-01-29T19:58:08.835Z,14.18
2019-01-29T20:00:34.907Z,14.17
2019-01-29T20:03:04.449Z,14.18
2019-01-29T20:05:34.207Z,14.18
2019-01-29T20:08:03.310Z,14.17
2019-01-29T20:10:32.747Z,14.19
2019-01-29T20:13:01.933Z,14.19
2019-01-29T20:15:31.907Z,14.21
2019-01-29T20:18:01.887Z,14.20
2019-01-29T20:20:34.489Z,14.21
2019-01-29T20:23:08.017Z,14.21
2019-01-29T20:25:36.049Z,14.21
2019-01-29T20:28:06.408Z,14.19
2019-01-29T20:30:38.331Z,14.18
2019-01-29T20:33:08.213Z,14.18
2019-01-29T20:35:37.818Z,14.16
2019-01-29T20:38:07.900Z,14.16
2019-01-29T20:40:37.988Z,14.13
2019-01-29T20:43:07.763Z,14.14
2019-01-29T20:45:37.576Z,14.12
2019-01-29T20:48:07.404Z,14.12
2019-01-29T20:50:37.701Z,14.11
2019-01-29T20:53:07.550Z,14.10
2019-01-29T20:55:37.340Z,14.10
2019-01-29T20:58:07.039Z,14.09
2019-01-29T21:00:42.460Z,14.08
2019-01-29T21:03:12.324Z,14.06
2019-01-29T21:05:42.693Z,14.04
2019-01-29T21:08:12.596Z,14.03
2019-01-29T21:10:42.426Z,14.01
2019-01-29T21:13:12.260Z,14.02
2019-01-29T21:15:42.247Z,14.01
2019-01-29T21:18:12.043Z,14.01
2019-01-29T21:20:41.833Z,13.98
2019-01-29T21:23:12.082Z,13.98
2019-01-29T21:25:41.945Z,13.97
2019-01-29T21:28:11.594Z,13.97
2019-01-29T21:30:43.942Z,13.83
2019-01-29T21:33:13.851Z,13.97
2019-01-29T21:35:43.841Z,13.98
2019-01-29T21:38:13.350Z,13.98
2019-01-29T21:40:43.070Z,13.94
2019-01-29T21:43:12.766Z,13.92
2019-01-29T21:45:42.714Z,13.92
2019-01-29T21:48:12.748Z,13.91
2019-01-29T21:50:42.676Z,13.90
2019-01-29T21:53:11.652Z,13.90
2019-01-29T21:55:40.604Z,13.90
2019-01-29T21:58:10.350Z,13.89
2019-01-29T22:00:42.088Z,13.89
2019-01-29T22:03:12.106Z,13.89
2019-01-29T22:05:43.639Z,13.90
2019-01-29T22:08:13.113Z,13.91
2019-01-29T22:10:42.157Z,13.89
2019-01-29T22:13:13.261Z,13.87
2019-01-29T22:15:46.624Z,13.87
2019-01-29T22:18:15.680Z,13.85
2019-01-29T22:20:45.774Z,13.83
2019-01-29T22:23:15.224Z,13.81
2019-01-29T22:25:45.195Z,13.79
2019-01-29T22:28:14.373Z,13.78
2019-01-29T22:30:43.392Z,13.75
2019-01-29T22:33:12.179Z,13.73
2019-01-29T22:35:41.820Z,13.72
2019-01-29T22:38:11.694Z,13.70
2019-01-29T22:40:42.314Z,13.68
2019-01-29T22:43:12.271Z,13.63
2019-01-29T22:45:42.448Z,13.62
2019-01-29T22:48:13.964Z,13.60
2019-01-29T22:50:42.988Z,13.57
2019-01-29T22:53:13.228Z,13.54
2019-01-29T22:55:42.857Z,13.49
2019-01-29T22:58:12.675Z,13.45
2019-01-29T23:01:09.701Z,13.40
2019-01-29T23:03:42.480Z,13.38
2019-01-29T23:06:27.114Z,13.34
2019-01-29T23:08:56.769Z,13.27
2019-01-29T23:11:26.779Z,13.22
2019-01-29T23:13:56.710Z,13.18
2019-01-29T23:16:26.438Z,13.14
2019-01-29T23:18:56.021Z,13.13
2019-01-29T23:21:25.890Z,13.09
2019-01-29T23:23:55.529Z,13.07
2019-01-29T23:26:25.055Z,13.07
2019-01-29T23:28:54.460Z,13.06
2019-01-29T23:31:24.197Z,13.05
2019-01-29T23:33:54.055Z,13.04
2019-01-29T23:36:26.876Z,12.99
2019-01-29T23:38:56.489Z,12.99
2019-01-29T23:41:26.183Z,12.97
2019-01-29T23:43:55.869Z,12.82
2019-01-29T23:46:25.489Z,12.96
2019-01-29T23:48:55.078Z,12.98
2019-01-29T23:51:24.776Z,12.99
2019-01-29T23:53:54.519Z,13.03
2019-01-29T23:56:23.798Z,13.02
2019-01-29T23:58:53.387Z,13.03
